PNS weather

Pensacola Regional Airport
Pensacola, Florida, United States

Public forecast

Using degrees Fahrenheit for public forecast. Weather courtesy of forecast.io.

METAR (pilot weather report)

Retrieved 2019/05/21 15:53 UTC (1 hour ago):

KPNS 211553Z 16015KT 10SM FEW022 28/23 A2995 RMK AO2 SLP142 T02830228 $

TAF (pilot weather forecast)

Retrieved 2019/05/21 12:36 UTC (4 hours ago):

TAF KPNS 211134Z 2112/2212 14004KT P6SM SCT020 FM211400 16008KT P6SM SCT025 FM211700 17013KT P6SM FEW030 FM220300 15007KT P6SM SKC